sensor_id;sensor_type;location;lat;lon;timestamp;pressure;altitude;pressure_sealevel;temperature;humidity
36828;BME280;22766;48.042;11.192;2023-02-28T00:01:12;95375.22;;;-4.68;100.00
36828;BME280;22766;48.042;11.192;2023-02-28T00:03:39;95376.13;;;-4.70;100.00
36828;BME280;22766;48.042;11.192;2023-02-28T00:06:07;95376.06;;;-4.69;100.00
36828;BME280;22766;48.042;11.192;2023-02-28T00:08:36;95378.81;;;-4.75;100.00
36828;BME280;22766;48.042;11.192;2023-02-28T00:11:05;95379.75;;;-4.78;100.00
36828;BME280;22766;48.042;11.192;2023-02-28T00:13:35;95374.75;;;-4.79;100.00
36828;BME280;22766;48.042;11.192;2023-02-28T00:16:24;95373.09;;;-4.80;100.00
36828;BME280;22766;48.042;11.192;2023-02-28T00:18:50;95376.56;;;-4.83;100.00
36828;BME280;22766;48.042;11.192;2023-02-28T00:21:17;95370.06;;;-4.90;100.00
36828;BME280;22766;48.042;11.192;2023-02-28T00:23:45;95369.88;;;-4.84;100.00
36828;BME280;22766;48.042;11.192;2023-02-28T00:26:12;95369.63;;;-4.76;100.00
36828;BME280;22766;48.042;11.192;2023-02-28T00:28:43;95366.66;;;-4.87;100.00
36828;BME280;22766;48.042;11.192;2023-02-28T00:31:10;95367.72;;;-4.94;100.00
36828;BME280;22766;48.042;11.192;2023-02-28T00:33:36;95366.19;;;-4.98;100.00
36828;BME280;22766;48.042;11.192;2023-02-28T00:36:05;95350.91;;;-4.94;100.00
36828;BME280;22766;48.042;11.192;2023-02-28T00:38:35;95357.75;;;-4.97;100.00
36828;BME280;22766;48.042;11.192;2023-02-28T00:41:02;95357.59;;;-4.93;100.00
36828;BME280;22766;48.042;11.192;2023-02-28T00:43:34;95359.28;;;-4.93;100.00
36828;BME280;22766;48.042;11.192;2023-02-28T00:46:03;95356.06;;;-4.97;100.00
36828;BME280;22766;48.042;11.192;2023-02-28T00:48:30;95359.59;;;-5.02;100.00
36828;BME280;22766;48.042;11.192;2023-02-28T00:50:57;95361.34;;;-5.04;100.00
36828;BME280;22766;48.042;11.192;2023-02-28T00:53:24;95367.34;;;-5.08;100.00
36828;BME280;22766;48.042;11.192;2023-02-28T00:55:51;95368.28;;;-5.11;100.00
36828;BME280;22766;48.042;11.192;2023-02-28T00:58:18;95364.97;;;-5.11;100.00
36828;BME280;22766;48.042;11.192;2023-02-28T01:00:47;95366.69;;;-5.13;100.00
36828;BME280;22766;48.042;11.192;2023-02-28T01:03:20;95363.53;;;-5.20;100.00
36828;BME280;22766;48.042;11.192;2023-02-28T01:05:46;95361.09;;;-5.21;100.00
36828;BME280;22766;48.042;11.192;2023-02-28T01:08:15;95358.63;;;-5.23;100.00
36828;BME280;22766;48.042;11.192;2023-02-28T01:10:42;95359.34;;;-5.19;100.00
36828;BME280;22766;48.042;11.192;2023-02-28T01:13:10;95355.16;;;-5.20;100.00
36828;BME280;22766;48.042;11.192;2023-02-28T01:15:39;95360.38;;;-5.25;100.00
36828;BME280;22766;48.042;11.192;2023-02-28T01:18:08;95353.66;;;-5.24;100.00
36828;BME280;22766;48.042;11.192;2023-02-28T01:20:36;95355.28;;;-5.23;100.00
36828;BME280;22766;48.042;11.192;2023-02-28T01:23:03;95358.75;;;-5.27;100.00
36828;BME280;22766;48.042;11.192;2023-02-28T01:25:30;95357.22;;;-5.31;100.00
36828;BME280;22766;48.042;11.192;2023-02-28T01:27:57;95350.50;;;-5.31;100.00
36828;BME280;22766;48.042;11.192;2023-02-28T01:30:26;95350.56;;;-5.32;100.00
36828;BME280;22766;48.042;11.192;2023-02-28T01:32:52;95350.56;;;-5.32;100.00
36828;BME280;22766;48.042;11.192;2023-02-28T01:35:20;95347.06;;;-5.28;100.00
36828;BME280;22766;48.042;11.192;2023-02-28T01:37:49;95349.63;;;-5.30;100.00
36828;BME280;22766;48.042;11.192;2023-02-28T01:40:16;95354.03;;;-5.36;100.00
36828;BME280;22766;48.042;11.192;2023-02-28T01:42:43;95350.81;;;-5.40;100.00
36828;BME280;22766;48.042;11.192;2023-02-28T01:47:52;95340.94;;;-5.46;100.00
36828;BME280;22766;48.042;11.192;2023-02-28T01:50:23;95342.81;;;-5.52;100.00
36828;BME280;22766;48.042;11.192;2023-02-28T01:52:54;95338.00;;;-5.58;100.00
36828;BME280;22766;48.042;11.192;2023-02-28T01:55:24;95335.69;;;-5.64;100.00
36828;BME280;22766;48.042;11.192;2023-02-28T01:57:58;95336.59;;;-5.67;100.00
36828;BME280;22766;48.042;11.192;2023-02-28T02:00:27;95331.66;;;-5.70;100.00
36828;BME280;22766;48.042;11.192;2023-02-28T02:03:05;95329.22;;;-5.73;100.00
36828;BME280;22766;48.042;11.192;2023-02-28T02:05:37;95325.13;;;-5.76;100.00
36828;BME280;22766;48.042;11.192;2023-02-28T02:08:08;95319.34;;;-5.78;100.00
36828;BME280;22766;48.042;11.192;2023-02-28T02:10:44;95321.84;;;-5.78;100.00
36828;BME280;22766;48.042;11.192;2023-02-28T02:18:48;95312.75;;;-5.82;100.00
36828;BME280;22766;48.042;11.192;2023-02-28T02:24:59;95307.56;;;-5.77;100.00
36828;BME280;22766;48.042;11.192;2023-02-28T02:38:36;95303.31;;;-5.75;100.00
36828;BME280;22766;48.042;11.192;2023-02-28T02:44:15;95299.34;;;-5.82;100.00
36828;BME280;22766;48.042;11.192;2023-02-28T02:46:45;95302.69;;;-5.82;100.00
36828;BME280;22766;48.042;11.192;2023-02-28T02:49:24;95302.75;;;-5.83;100.00
36828;BME280;22766;48.042;11.192;2023-02-28T02:51:53;95305.22;;;-5.82;100.00
36828;BME280;22766;48.042;11.192;2023-02-28T02:54:24;95306.00;;;-5.80;100.00
36828;BME280;22766;48.042;11.192;2023-02-28T02:56:58;95299.34;;;-5.82;100.00
36828;BME280;22766;48.042;11.192;2023-02-28T02:59:28;95299.34;;;-5.82;100.00
36828;BME280;22766;48.042;11.192;2023-02-28T03:02:00;95301.19;;;-5.86;100.00
36828;BME280;22766;48.042;11.192;2023-02-28T03:04:32;95305.28;;;-5.83;100.00
36828;BME280;22766;48.042;11.192;2023-02-28T03:06:59;95303.69;;;-5.86;100.00
36828;BME280;22766;48.042;11.192;2023-02-28T03:09:26;95300.28;;;-5.85;100.00
36828;BME280;22766;48.042;11.192;2023-02-28T03:11:55;95304.53;;;-5.85;100.00
36828;BME280;22766;48.042;11.192;2023-02-28T03:22:25;95314.91;;;-5.96;100.00
36828;BME280;22766;48.042;11.192;2023-02-28T03:25:17;95300.81;;;-6.01;100.00
36828;BME280;22766;48.042;11.192;2023-02-28T03:33:21;95302.50;;;-6.02;100.00
36828;BME280;22766;48.042;11.192;2023-02-28T03:35:54;95305.78;;;-6.00;100.00
36828;BME280;22766;48.042;11.192;2023-02-28T03:38:33;95298.91;;;-5.93;100.00
36828;BME280;22766;48.042;11.192;2023-02-28T03:41:07;95307.28;;;-5.94;100.00
36828;BME280;22766;48.042;11.192;2023-02-28T03:43:38;95308.91;;;-5.92;100.00
36828;BME280;22766;48.042;11.192;2023-02-28T03:46:10;95319.84;;;-5.93;100.00
36828;BME280;22766;48.042;11.192;2023-02-28T03:48:43;95305.47;;;-5.89;100.00
36828;BME280;22766;48.042;11.192;2023-02-28T03:51:15;95320.63;;;-5.92;100.00
36828;BME280;22766;48.042;11.192;2023-02-28T03:53:47;95324.94;;;-5.96;100.00
36828;BME280;22766;48.042;11.192;2023-02-28T03:56:26;95324.16;;;-5.98;100.00
36828;BME280;22766;48.042;11.192;2023-02-28T03:59:06;95325.97;;;-6.01;100.00
36828;BME280;22766;48.042;11.192;2023-02-28T04:01:41;95329.78;;;-5.90;100.00
36828;BME280;22766;48.042;11.192;2023-02-28T04:04:10;95333.31;;;-5.95;100.00
36828;BME280;22766;48.042;11.192;2023-02-28T04:06:37;95338.41;;;-5.98;100.00
36828;BME280;22766;48.042;11.192;2023-02-28T04:09:06;95339.13;;;-5.93;100.00
36828;BME280;22766;48.042;11.192;2023-02-28T04:11:38;95345.06;;;-5.96;100.00
36828;BME280;22766;48.042;11.192;2023-02-28T04:14:07;95347.38;;;-5.90;100.00
36828;BME280;22766;48.042;11.192;2023-02-28T04:16:37;95348.25;;;-5.91;100.00
36828;BME280;22766;48.042;11.192;2023-02-28T04:19:07;95345.66;;;-5.88;100.00
36828;BME280;22766;48.042;11.192;2023-02-28T04:21:44;95343.22;;;-5.91;100.00
36828;BME280;22766;48.042;11.192;2023-02-28T04:24:14;95347.44;;;-5.91;100.00
36828;BME280;22766;48.042;11.192;2023-02-28T04:26:43;95358.16;;;-5.86;100.00
36828;BME280;22766;48.042;11.192;2023-02-28T04:29:12;95348.72;;;-5.80;100.00
36828;BME280;22766;48.042;11.192;2023-02-28T04:31:39;95344.13;;;-5.67;100.00
36828;BME280;22766;48.042;11.192;2023-02-28T04:34:06;95346.59;;;-5.65;100.00
36828;BME280;22766;48.042;11.192;2023-02-28T04:36:33;95344.66;;;-5.57;100.00
36828;BME280;22766;48.042;11.192;2023-02-28T04:39:00;95347.00;;;-5.51;100.00
36828;BME280;22766;48.042;11.192;2023-02-28T04:41:27;95345.06;;;-5.43;100.00
36828;BME280;22766;48.042;11.192;2023-02-28T04:43:57;95344.81;;;-5.36;100.00
36828;BME280;22766;48.042;11.192;2023-02-28T04:46:24;95347.16;;;-5.31;100.00
36828;BME280;22766;48.042;11.192;2023-02-28T04:48:51;95348.75;;;-5.29;100.00
36828;BME280;22766;48.042;11.192;2023-02-28T04:51:18;95351.09;;;-5.23;100.00
36828;BME280;22766;48.042;11.192;2023-02-28T04:53:47;95353.44;;;-5.18;100.00
36828;BME280;22766;48.042;11.192;2023-02-28T04:56:16;95350.63;;;-5.09;100.00
36828;BME280;22766;48.042;11.192;2023-02-28T04:58:43;95349.53;;;-5.02;100.00
36828;BME280;22766;48.042;11.192;2023-02-28T05:01:21;95346.09;;;-5.00;100.00
36828;BME280;22766;48.042;11.192;2023-02-28T05:03:48;95349.16;;;-4.92;100.00
36828;BME280;22766;48.042;11.192;2023-02-28T05:06:15;95346.50;;;-4.87;100.00
36828;BME280;22766;48.042;11.192;2023-02-28T05:08:42;95358.13;;;-4.83;100.00
36828;BME280;22766;48.042;11.192;2023-02-28T05:11:24;95355.59;;;-4.83;100.00
36828;BME280;22766;48.042;11.192;2023-02-28T05:13:52;95368.84;;;-4.78;100.00
36828;BME280;22766;48.042;11.192;2023-02-28T05:16:20;95367.91;;;-4.76;100.00
36828;BME280;22766;48.042;11.192;2023-02-28T05:18:46;95357.53;;;-4.66;100.00
36828;BME280;22766;48.042;11.192;2023-02-28T05:21:32;95367.28;;;-4.57;100.00
36828;BME280;22766;48.042;11.192;2023-02-28T05:24:02;95358.94;;;-4.59;100.00
36828;BME280;22766;48.042;11.192;2023-02-28T05:26:30;95355.50;;;-4.57;100.00
36828;BME280;22766;48.042;11.192;2023-02-28T05:28:57;95358.59;;;-4.49;100.00
36828;BME280;22766;48.042;11.192;2023-02-28T05:31:24;95362.78;;;-4.49;100.00
36828;BME280;22766;48.042;11.192;2023-02-28T05:33:51;95361.09;;;-4.49;100.00
36828;BME280;22766;48.042;11.192;2023-02-28T05:36:18;95365.31;;;-4.49;100.00
36828;BME280;22766;48.042;11.192;2023-02-28T05:38:48;95356.22;;;-4.53;100.00
36828;BME280;22766;48.042;11.192;2023-02-28T05:41:16;95360.00;;;-4.42;100.00
36828;BME280;22766;48.042;11.192;2023-02-28T05:43:43;95360.00;;;-4.42;100.00
36828;BME280;22766;48.042;11.192;2023-02-28T05:46:11;95363.34;;;-4.41;100.00
36828;BME280;22766;48.042;11.192;2023-02-28T05:48:39;95354.81;;;-4.37;100.00
36828;BME280;22766;48.042;11.192;2023-02-28T05:51:07;95362.31;;;-4.36;100.00
36828;BME280;22766;48.042;11.192;2023-02-28T05:53:35;95359.34;;;-4.24;100.00
36828;BME280;22766;48.042;11.192;2023-02-28T05:56:02;95356.84;;;-4.24;100.00
36828;BME280;22766;48.042;11.192;2023-02-28T05:58:29;95360.13;;;-4.22;100.00
36828;BME280;22766;48.042;11.192;2023-02-28T06:00:58;95370.06;;;-4.19;100.00
36828;BME280;22766;48.042;11.192;2023-02-28T06:03:26;95366.19;;;-4.27;100.00
36828;BME280;22766;48.042;11.192;2023-02-28T06:05:53;95369.53;;;-4.27;100.00
36828;BME280;22766;48.042;11.192;2023-02-28T06:08:20;95371.13;;;-4.24;100.00
36828;BME280;22766;48.042;11.192;2023-02-28T06:10:47;95377.00;;;-4.24;100.00
36828;BME280;22766;48.042;11.192;2023-02-28T06:13:14;95383.78;;;-4.26;100.00
36828;BME280;22766;48.042;11.192;2023-02-28T06:15:41;95386.31;;;-4.26;100.00
36828;BME280;22766;48.042;11.192;2023-02-28T06:18:08;95384.31;;;-4.18;100.00
36828;BME280;22766;48.042;11.192;2023-02-28T06:20:35;95391.16;;;-4.21;100.00
36828;BME280;22766;48.042;11.192;2023-02-28T06:23:03;95396.16;;;-4.20;100.00
36828;BME280;22766;48.042;11.192;2023-02-28T06:25:29;95392.41;;;-4.10;100.00
36828;BME280;22766;48.042;11.192;2023-02-28T06:27:56;95397.47;;;-4.10;100.00
36828;BME280;22766;48.042;11.192;2023-02-28T06:30:23;95394.88;;;-4.08;100.00
36828;BME280;22766;48.042;11.192;2023-02-28T06:32:53;95400.97;;;-4.14;100.00
36828;BME280;22766;48.042;11.192;2023-02-28T06:35:20;95403.34;;;-4.09;100.00
36828;BME280;22766;48.042;11.192;2023-02-28T06:37:46;95414.25;;;-4.09;100.00
36828;BME280;22766;48.042;11.192;2023-02-28T06:40:14;95422.59;;;-4.07;100.00
36828;BME280;22766;48.042;11.192;2023-02-28T06:42:41;95422.31;;;-3.99;100.00
36828;BME280;22766;48.042;11.192;2023-02-28T06:45:08;95424.00;;;-4.00;100.00
36828;BME280;22766;48.042;11.192;2023-02-28T06:47:38;95434.16;;;-4.01;100.00
36828;BME280;22766;48.042;11.192;2023-02-28T06:50:05;95429.03;;;-4.00;100.00
36828;BME280;22766;48.042;11.192;2023-02-28T06:52:32;95432.97;;;-3.93;100.00
36828;BME280;22766;48.042;11.192;2023-02-28T06:55:04;95427.72;;;-3.87;100.00
36828;BME280;22766;48.042;11.192;2023-02-28T06:57:33;95435.00;;;-3.79;100.00
36828;BME280;22766;48.042;11.192;2023-02-28T07:00:01;95428.97;;;-3.75;100.00
36828;BME280;22766;48.042;11.192;2023-02-28T07:02:29;95429.72;;;-3.73;100.00
36828;BME280;22766;48.042;11.192;2023-02-28T07:04:56;95432.13;;;-3.70;100.00
36828;BME280;22766;48.042;11.192;2023-02-28T07:07:22;95433.88;;;-3.72;100.00
36828;BME280;22766;48.042;11.192;2023-02-28T07:09:49;95432.53;;;-3.81;100.00
36828;BME280;22766;48.042;11.192;2023-02-28T07:12:16;95430.44;;;-3.69;100.00
36828;BME280;22766;48.042;11.192;2023-02-28T07:14:43;95437.16;;;-3.70;100.00
36828;BME280;22766;48.042;11.192;2023-02-28T07:17:10;95435.06;;;-3.59;100.00
36828;BME280;22766;48.042;11.192;2023-02-28T07:19:39;95447.09;;;-3.65;100.00
36828;BME280;22766;48.042;11.192;2023-02-28T07:22:06;95440.94;;;-3.58;100.00
36828;BME280;22766;48.042;11.192;2023-02-28T07:24:34;95449.19;;;-3.53;100.00
36828;BME280;22766;48.042;11.192;2023-02-28T07:27:01;95448.28;;;-3.52;100.00
36828;BME280;22766;48.042;11.192;2023-02-28T07:29:28;95443.88;;;-3.47;100.00
36828;BME280;22766;48.042;11.192;2023-02-28T07:31:55;95452.81;;;-3.39;100.00
36828;BME280;22766;48.042;11.192;2023-02-28T07:34:22;95449.53;;;-3.41;100.00
36828;BME280;22766;48.042;11.192;2023-02-28T07:36:53;95452.28;;;-3.47;100.00
36828;BME280;22766;48.042;11.192;2023-02-28T07:39:21;95454.69;;;-3.44;100.00
36828;BME280;22766;48.042;11.192;2023-02-28T07:41:48;95453.22;;;-3.28;100.00
36828;BME280;22766;48.042;11.192;2023-02-28T07:44:15;95452.09;;;-3.21;100.00
36828;BME280;22766;48.042;11.192;2023-02-28T07:46:41;95462.94;;;-3.19;100.00
36828;BME280;22766;48.042;11.192;2023-02-28T07:49:08;95460.34;;;-3.17;100.00
36828;BME280;22766;48.042;11.192;2023-02-28T07:51:35;95456.66;;;-3.30;100.00
36828;BME280;22766;48.042;11.192;2023-02-28T07:54:02;95461.41;;;-3.23;100.00
36828;BME280;22766;48.042;11.192;2023-02-28T07:56:29;95461.78;;;-3.10;100.00
36828;BME280;22766;48.042;11.192;2023-02-28T07:58:56;95466.41;;;-3.00;100.00
36828;BME280;22766;48.042;11.192;2023-02-28T08:01:23;95464.59;;;-3.18;100.00
36828;BME280;22766;48.042;11.192;2023-02-28T08:03:50;95466.78;;;-3.09;100.00
36828;BME280;22766;48.042;11.192;2023-02-28T08:06:22;95465.06;;;-3.08;100.00
36828;BME280;22766;48.042;11.192;2023-02-28T08:08:49;95469.53;;;-3.15;100.00
36828;BME280;22766;48.042;11.192;2023-02-28T08:11:17;95474.81;;;-3.21;100.00
36828;BME280;22766;48.042;11.192;2023-02-28T08:13:44;95468.13;;;-3.22;100.00
36828;BME280;22766;48.042;11.192;2023-02-28T08:16:13;95465.38;;;-3.16;100.00
36828;BME280;22766;48.042;11.192;2023-02-28T08:18:51;95467.59;;;-3.30;100.00
36828;BME280;22766;48.042;11.192;2023-02-28T08:21:19;95473.75;;;-3.15;100.00
36828;BME280;22766;48.042;11.192;2023-02-28T08:23:49;95470.19;;;-3.10;100.00
36828;BME280;22766;48.042;11.192;2023-02-28T08:26:17;95471.97;;;-3.12;100.00
36828;BME280;22766;48.042;11.192;2023-02-28T08:28:44;95473.94;;;-3.20;100.00
36828;BME280;22766;48.042;11.192;2023-02-28T08:31:12;95471.28;;;-3.17;100.00
36828;BME280;22766;48.042;11.192;2023-02-28T08:33:41;95472.13;;;-3.16;100.00
36828;BME280;22766;48.042;11.192;2023-02-28T08:36:08;95473.28;;;-3.03;100.00
36828;BME280;22766;48.042;11.192;2023-02-28T08:38:36;95471.38;;;-2.76;100.00
36828;BME280;22766;48.042;11.192;2023-02-28T08:41:05;95475.50;;;-2.74;100.00
36828;BME280;22766;48.042;11.192;2023-02-28T08:43:34;95483.06;;;-2.54;100.00
36828;BME280;22766;48.042;11.192;2023-02-28T08:46:02;95488.56;;;-2.44;100.00
36828;BME280;22766;48.042;11.192;2023-02-28T08:48:31;95482.13;;;-2.31;100.00
36828;BME280;22766;48.042;11.192;2023-02-28T08:53:33;95477.88;;;-2.31;100.00
36828;BME280;22766;48.042;11.192;2023-02-28T08:56:03;95483.75;;;-2.50;100.00
36828;BME280;22766;48.042;11.192;2023-02-28T08:58:31;95481.69;;;-2.61;100.00
36828;BME280;22766;48.042;11.192;2023-02-28T09:00:58;95487.94;;;-2.49;100.00
36828;BME280;22766;48.042;11.192;2023-02-28T09:03:25;95496.78;;;-2.39;100.00
36828;BME280;22766;48.042;11.192;2023-02-28T09:05:58;95498.06;;;-2.49;100.00
36828;BME280;22766;48.042;11.192;2023-02-28T09:08:28;95498.47;;;-2.60;100.00
36828;BME280;22766;48.042;11.192;2023-02-28T09:10:55;95502.91;;;-2.65;100.00
36828;BME280;22766;48.042;11.192;2023-02-28T09:13:24;95503.59;;;-2.61;100.00
36828;BME280;22766;48.042;11.192;2023-02-28T09:15:52;95499.22;;;-2.78;100.00
36828;BME280;22766;48.042;11.192;2023-02-28T09:18:20;95501.38;;;-2.69;100.00
36828;BME280;22766;48.042;11.192;2023-02-28T09:20:47;95503.97;;;-2.70;100.00
36828;BME280;22766;48.042;11.192;2023-02-28T09:23:14;95507.34;;;-2.70;100.00
36828;BME280;22766;48.042;11.192;2023-02-28T09:25:51;95504.81;;;-2.50;100.00
36828;BME280;22766;48.042;11.192;2023-02-28T09:28:20;95506.47;;;-2.49;100.00
36828;BME280;22766;48.042;11.192;2023-02-28T09:30:49;95508.63;;;-2.40;100.00
36828;BME280;22766;48.042;11.192;2023-02-28T09:33:17;95514.13;;;-2.30;100.00
36828;BME280;22766;48.042;11.192;2023-02-28T09:35:48;95509.31;;;-2.36;100.00
36828;BME280;22766;48.042;11.192;2023-02-28T09:38:15;95513.47;;;-2.35;100.00
36828;BME280;22766;48.042;11.192;2023-02-28T09:40:51;95514.66;;;-2.24;100.00
36828;BME280;22766;48.042;11.192;2023-02-28T09:43:21;95525.00;;;-2.28;100.00
36828;BME280;22766;48.042;11.192;2023-02-28T09:46:00;95522.91;;;-2.19;100.00
36828;BME280;22766;48.042;11.192;2023-02-28T09:48:35;95518.22;;;-2.08;100.00
36828;BME280;22766;48.042;11.192;2023-02-28T09:53:59;95529.81;;;-1.83;100.00
36828;BME280;22766;48.042;11.192;2023-02-28T09:56:38;95534.06;;;-1.84;100.00
36828;BME280;22766;48.042;11.192;2023-02-28T10:01:50;95540.78;;;-1.64;100.00
36828;BME280;22766;48.042;11.192;2023-02-28T10:06:53;95551.00;;;-1.66;100.00
36828;BME280;22766;48.042;11.192;2023-02-28T10:09:24;95550.50;;;-1.55;100.00
36828;BME280;22766;48.042;11.192;2023-02-28T10:11:54;95552.03;;;-1.51;100.00
36828;BME280;22766;48.042;11.192;2023-02-28T10:14:26;95549.84;;;-1.59;100.00
36828;BME280;22766;48.042;11.192;2023-02-28T10:17:25;95556.06;;;-1.66;100.00
36828;BME280;22766;48.042;11.192;2023-02-28T10:22:44;95555.63;;;-1.75;100.00
36828;BME280;22766;48.042;11.192;2023-02-28T10:25:23;95563.44;;;-1.61;100.00
36828;BME280;22766;48.042;11.192;2023-02-28T10:27:53;95565.91;;;-1.60;100.00
36828;BME280;22766;48.042;11.192;2023-02-28T10:30:20;95571.44;;;-1.70;100.00
36828;BME280;22766;48.042;11.192;2023-02-28T10:32:50;95570.94;;;-1.78;100.00
36828;BME280;22766;48.042;11.192;2023-02-28T10:35:21;95573.59;;;-1.81;100.00
36828;BME280;22766;48.042;11.192;2023-02-28T10:37:50;95566.59;;;-1.75;100.00
36828;BME280;22766;48.042;11.192;2023-02-28T10:45:35;95572.19;;;-1.30;100.00
36828;BME280;22766;48.042;11.192;2023-02-28T10:50:54;95574.44;;;-1.24;100.00
36828;BME280;22766;48.042;11.192;2023-02-28T10:58:52;95581.13;;;-1.23;100.00
36828;BME280;22766;48.042;11.192;2023-02-28T11:01:34;95578.66;;;-0.87;100.00
36828;BME280;22766;48.042;11.192;2023-02-28T11:04:02;95575.66;;;-0.76;100.00
36828;BME280;22766;48.042;11.192;2023-02-28T11:06:32;95577.41;;;-0.60;100.00
36828;BME280;22766;48.042;11.192;2023-02-28T11:09:18;95577.91;;;-0.70;100.00
36828;BME280;22766;48.042;11.192;2023-02-28T11:11:47;95575.41;;;-0.72;100.00
36828;BME280;22766;48.042;11.192;2023-02-28T11:14:22;95572.41;;;-0.61;100.00
36828;BME280;22766;48.042;11.192;2023-02-28T11:16:51;95571.66;;;-0.63;100.00
36828;BME280;22766;48.042;11.192;2023-02-28T11:19:24;95568.69;;;-0.37;100.00
36828;BME280;22766;48.042;11.192;2023-02-28T11:21:55;95562.78;;;-0.38;100.00
36828;BME280;22766;48.042;11.192;2023-02-28T11:24:42;95575.28;;;-0.33;100.00
36828;BME280;22766;48.042;11.192;2023-02-28T11:32:50;95571.16;;;-0.19;100.00
36828;BME280;22766;48.042;11.192;2023-02-28T11:35:23;95563.63;;;-0.20;100.00
36828;BME280;22766;48.042;11.192;2023-02-28T11:37:51;95561.75;;;-0.17;100.00
36828;BME280;22766;48.042;11.192;2023-02-28T11:40:23;95568.19;;;0.08;100.00
36828;BME280;22766;48.042;11.192;2023-02-28T11:43:19;95562.78;;;0.63;100.00
36828;BME280;22766;48.042;11.192;2023-02-28T11:51:28;95551.25;;;0.41;100.00
36828;BME280;22766;48.042;11.192;2023-02-28T11:56:43;95556.34;;;0.89;100.00
36828;BME280;22766;48.042;11.192;2023-02-28T12:02:16;95551.66;;;0.97;100.00
36828;BME280;22766;48.042;11.192;2023-02-28T12:07:34;95542.31;;;0.82;99.46
36828;BME280;22766;48.042;11.192;2023-02-28T12:29:01;95529.06;;;5.62;60.39
36828;BME280;22766;48.042;11.192;2023-02-28T12:31:36;95527.88;;;5.79;59.13
36828;BME280;22766;48.042;11.192;2023-02-28T12:34:07;95526.00;;;5.34;55.32
36828;BME280;22766;48.042;11.192;2023-02-28T12:36:37;95525.19;;;4.97;62.37
36828;BME280;22766;48.042;11.192;2023-02-28T12:42:24;95523.94;;;4.54;57.75
36828;BME280;22766;48.042;11.192;2023-02-28T12:44:57;95519.50;;;4.43;61.57
36828;BME280;22766;48.042;11.192;2023-02-28T12:47:24;95518.31;;;4.98;63.80
36828;BME280;22766;48.042;11.192;2023-02-28T12:55:14;95516.16;;;5.40;56.62
36828;BME280;22766;48.042;11.192;2023-02-28T12:57:52;95509.72;;;4.99;57.25
36828;BME280;22766;48.042;11.192;2023-02-28T13:00:30;95522.28;;;4.03;60.99
36828;BME280;22766;48.042;11.192;2023-02-28T13:06:17;95521.19;;;3.53;66.57
36828;BME280;22766;48.042;11.192;2023-02-28T13:09:08;95524.59;;;3.27;70.96
36828;BME280;22766;48.042;11.192;2023-02-28T13:14:19;95522.78;;;2.89;72.75
36828;BME280;22766;48.042;11.192;2023-02-28T13:19:38;95520.41;;;2.43;76.44
36828;BME280;22766;48.042;11.192;2023-02-28T13:22:35;95521.69;;;2.64;78.67
36828;BME280;22766;48.042;11.192;2023-02-28T13:25:02;95517.13;;;2.83;75.17
36828;BME280;22766;48.042;11.192;2023-02-28T13:27:39;95512.28;;;3.34;74.24
36828;BME280;22766;48.042;11.192;2023-02-28T13:46:37;95510.78;;;8.20;47.66
36828;BME280;22766;48.042;11.192;2023-02-28T14:02:59;95503.38;;;7.53;46.45
36828;BME280;22766;48.042;11.192;2023-02-28T14:05:29;95515.34;;;7.21;47.53
36828;BME280;22766;48.042;11.192;2023-02-28T14:08:04;95506.66;;;6.69;48.51
36828;BME280;22766;48.042;11.192;2023-02-28T14:10:37;95508.69;;;7.73;48.37
36828;BME280;22766;48.042;11.192;2023-02-28T14:15:59;95503.84;;;7.79;46.44
36828;BME280;22766;48.042;11.192;2023-02-28T14:18:34;95495.31;;;8.10;45.80
36828;BME280;22766;48.042;11.192;2023-02-28T14:24:22;95498.31;;;8.87;45.89
36828;BME280;22766;48.042;11.192;2023-02-28T14:27:00;95487.81;;;8.69;42.72
36828;BME280;22766;48.042;11.192;2023-02-28T14:29:42;95495.22;;;8.21;45.77
36828;BME280;22766;48.042;11.192;2023-02-28T14:37:36;95493.31;;;9.25;41.82
36828;BME280;22766;48.042;11.192;2023-02-28T14:40:14;95500.34;;;8.83;42.91
36828;BME280;22766;48.042;11.192;2023-02-28T14:42:47;95494.84;;;8.97;44.07
36828;BME280;22766;48.042;11.192;2023-02-28T14:45:19;95489.66;;;8.58;44.24
36828;BME280;22766;48.042;11.192;2023-02-28T14:47:49;95493.63;;;8.41;44.80
36828;BME280;22766;48.042;11.192;2023-02-28T14:50:29;95492.03;;;8.08;44.56
36828;BME280;22766;48.042;11.192;2023-02-28T14:52:57;95495.75;;;8.57;45.47
36828;BME280;22766;48.042;11.192;2023-02-28T14:55:34;95494.47;;;8.10;43.35
36828;BME280;22766;48.042;11.192;2023-02-28T14:58:04;95486.63;;;7.27;46.63
36828;BME280;22766;48.042;11.192;2023-02-28T15:00:46;95501.03;;;6.75;47.11
36828;BME280;22766;48.042;11.192;2023-02-28T15:05:57;95507.69;;;5.75;50.66
36828;BME280;22766;48.042;11.192;2023-02-28T15:08:25;95504.75;;;5.68;51.24
36828;BME280;22766;48.042;11.192;2023-02-28T15:13:33;95511.09;;;5.28;52.53
36828;BME280;22766;48.042;11.192;2023-02-28T15:16:28;95508.28;;;5.31;52.37
36828;BME280;22766;48.042;11.192;2023-02-28T15:19:11;95510.41;;;5.13;52.71
36828;BME280;22766;48.042;11.192;2023-02-28T15:21:43;95506.88;;;5.03;56.48
36828;BME280;22766;48.042;11.192;2023-02-28T15:26:46;95509.31;;;4.92;55.98
36828;BME280;22766;48.042;11.192;2023-02-28T15:29:19;95511.44;;;4.37;56.82
36828;BME280;22766;48.042;11.192;2023-02-28T15:31:55;95503.16;;;4.08;60.54
36828;BME280;22766;48.042;11.192;2023-02-28T15:34:37;95513.59;;;4.18;59.75
36828;BME280;22766;48.042;11.192;2023-02-28T15:37:28;95516.25;;;4.29;59.82
36828;BME280;22766;48.042;11.192;2023-02-28T15:40:12;95511.03;;;4.30;59.28
36828;BME280;22766;48.042;11.192;2023-02-28T15:42:40;95508.06;;;4.11;59.32
36828;BME280;22766;48.042;11.192;2023-02-28T15:45:26;95520.53;;;3.64;62.33
36828;BME280;22766;48.042;11.192;2023-02-28T15:47:53;95517.00;;;3.40;65.13
36828;BME280;22766;48.042;11.192;2023-02-28T15:50:27;95520.06;;;3.04;67.76
36828;BME280;22766;48.042;11.192;2023-02-28T15:52:56;95524.56;;;3.01;69.33